createdAt,value
2022-08-26T00:00:09.804Z,493.78
2022-08-26T00:00:54.559Z,499.97
2022-08-26T00:01:40.134Z,522.28
2022-08-26T00:02:24.800Z,503.63
2022-08-26T00:03:10.666Z,503.63
2022-08-26T00:03:55.320Z,505.60
2022-08-26T00:04:40.243Z,513.10
2022-08-26T00:05:25.402Z,509.35
2022-08-26T00:06:10.157Z,495.28
2022-08-26T00:06:55.801Z,495.28
2022-08-26T00:07:41.088Z,506.53
2022-08-26T00:08:26.449Z,485.91
2022-08-26T00:09:10.702Z,498.96
2022-08-26T00:09:55.436Z,501.76
2022-08-26T00:10:40.795Z,501.76
2022-08-26T00:11:26.663Z,501.76
2022-08-26T00:12:12.221Z,501.76
2022-08-26T00:12:55.970Z,501.76
2022-08-26T00:13:41.254Z,501.76
2022-08-26T00:14:31.063Z,501.76
2022-08-26T00:15:11.190Z,501.76
2022-08-26T00:15:56.281Z,501.76
2022-08-26T00:16:47.669Z,501.76
2022-08-26T00:17:26.501Z,501.76
2022-08-26T00:18:21.756Z,501.76
2022-08-26T00:18:56.575Z,501.76
2022-08-26T00:19:41.590Z,501.76
2022-08-26T00:20:26.840Z,501.76
2022-08-26T00:21:11.972Z,501.76
2022-08-26T00:21:56.984Z,501.76
2022-08-26T00:22:41.903Z,501.76
2022-08-26T00:23:27.013Z,501.76
2022-08-26T00:24:12.118Z,501.76
2022-08-26T00:24:56.690Z,501.76
2022-08-26T00:25:42.516Z,501.76
2022-08-26T00:26:28.462Z,501.76
2022-08-26T00:27:12.259Z,501.76
2022-08-26T00:27:57.006Z,501.76
2022-08-26T00:28:42.259Z,501.76
2022-08-26T00:29:27.130Z,501.76
2022-08-26T00:30:12.167Z,501.76
2022-08-26T00:30:57.117Z,501.76
2022-08-26T00:31:42.470Z,501.76
2022-08-26T00:32:27.646Z,501.76
2022-08-26T00:33:12.338Z,501.76
2022-08-26T00:33:57.445Z,501.76
2022-08-26T00:34:42.513Z,501.76
2022-08-26T00:35:27.888Z,501.76
2022-08-26T00:36:20.202Z,501.76
2022-08-26T00:36:57.611Z,501.76
2022-08-26T00:37:42.828Z,501.76
2022-08-26T00:38:28.114Z,501.76
2022-08-26T00:39:12.992Z,501.76
2022-08-26T00:39:58.052Z,501.76
2022-08-26T00:40:43.154Z,501.76
2022-08-26T00:41:28.216Z,501.76
2022-08-26T00:42:12.988Z,501.76
2022-08-26T00:42:58.328Z,501.76
2022-08-26T00:43:47.086Z,501.76
2022-08-26T00:44:28.234Z,501.76
2022-08-26T00:45:13.600Z,501.76
2022-08-26T00:45:58.527Z,501.76
2022-08-26T00:46:46.615Z,501.76
2022-08-26T00:47:31.043Z,501.76
2022-08-26T00:48:13.517Z,501.76
2022-08-26T00:48:58.581Z,501.76
2022-08-26T00:49:43.558Z,501.76
2022-08-26T00:50:28.586Z,501.76
2022-08-26T00:51:13.779Z,501.76
2022-08-26T00:51:58.602Z,501.76
2022-08-26T00:52:44.049Z,501.76
2022-08-26T00:53:29.426Z,501.76
2022-08-26T00:54:14.069Z,501.76
2022-08-26T00:54:59.739Z,501.76
2022-08-26T00:55:44.062Z,501.76
2022-08-26T00:56:28.977Z,501.76
2022-08-26T00:57:16.279Z,501.76
2022-08-26T00:57:59.362Z,501.76
2022-08-26T00:58:44.237Z,501.76
2022-08-26T00:59:29.184Z,501.76
2022-08-26T01:00:14.485Z,501.76
2022-08-26T01:00:59.606Z,501.76
2022-08-26T01:01:44.069Z,501.76
2022-08-26T01:02:29.173Z,501.76
2022-08-26T01:03:14.442Z,501.76
2022-08-26T01:03:59.612Z,501.76
2022-08-26T01:04:44.764Z,501.76
2022-08-26T01:05:30.223Z,501.76
2022-08-26T01:06:14.702Z,501.76
2022-08-26T01:06:59.431Z,501.76
2022-08-26T01:07:44.578Z,501.76
2022-08-26T01:08:29.860Z,501.76
2022-08-26T01:09:14.789Z,501.76
2022-08-26T01:09:59.647Z,501.76
2022-08-26T01:10:45.009Z,501.76
2022-08-26T01:11:29.859Z,501.76
2022-08-26T01:12:14.953Z,501.76
2022-08-26T01:13:00.172Z,501.76
2022-08-26T01:13:44.921Z,501.76
2022-08-26T01:14:29.883Z,501.76
2022-08-26T01:15:15.039Z,501.76
2022-08-26T01:16:00.259Z,501.76
2022-08-26T01:16:45.282Z,501.76
2022-08-26T01:17:30.412Z,501.76
2022-08-26T01:18:15.155Z,501.76
2022-08-26T01:19:00.214Z,501.76
2022-08-26T01:19:45.370Z,501.76
2022-08-26T01:20:30.325Z,501.76
2022-08-26T01:21:15.485Z,501.76
2022-08-26T01:22:00.648Z,501.76
2022-08-26T01:22:45.814Z,501.76
2022-08-26T01:23:30.351Z,501.76
2022-08-26T01:24:15.415Z,501.76
2022-08-26T01:25:00.307Z,501.76
2022-08-26T01:25:45.618Z,501.76
2022-08-26T01:26:30.990Z,501.76
2022-08-26T01:27:15.643Z,501.76
2022-08-26T01:28:01.026Z,501.76
2022-08-26T01:28:45.795Z,501.76
2022-08-26T01:29:30.799Z,501.76
2022-08-26T01:30:15.854Z,501.76
2022-08-26T01:31:00.918Z,501.76
2022-08-26T01:31:46.239Z,501.76
2022-08-26T01:32:31.028Z,501.76
2022-08-26T01:33:16.083Z,501.76
2022-08-26T01:34:01.054Z,501.76
2022-08-26T01:34:45.883Z,501.76
2022-08-26T01:35:31.347Z,501.76
2022-08-26T01:36:16.305Z,501.76
2022-08-26T01:37:01.486Z,501.76
2022-08-26T01:37:46.215Z,501.76
2022-08-26T01:38:31.662Z,501.76
2022-08-26T01:39:16.229Z,501.76
2022-08-26T01:40:01.614Z,501.76
2022-08-26T01:40:46.445Z,501.76
2022-08-26T01:41:31.510Z,501.76
2022-08-26T01:42:16.695Z,501.76
2022-08-26T01:43:01.922Z,501.76
2022-08-26T01:43:46.569Z,501.76
2022-08-26T01:44:31.891Z,501.76
2022-08-26T01:45:17.921Z,501.76
2022-08-26T01:46:02.170Z,501.76
2022-08-26T01:46:46.695Z,501.76
2022-08-26T01:47:31.968Z,501.76
2022-08-26T01:48:17.003Z,501.76
2022-08-26T01:49:02.195Z,501.76
2022-08-26T01:49:47.328Z,501.76
2022-08-26T01:50:32.171Z,501.76
2022-08-26T01:51:17.356Z,501.76
2022-08-26T01:52:02.506Z,501.76
2022-08-26T01:52:49.988Z,501.76
2022-08-26T01:53:32.616Z,501.76
2022-08-26T01:54:17.374Z,501.76
2022-08-26T01:55:02.828Z,501.76
2022-08-26T01:55:47.056Z,396.62
2022-08-26T01:56:33.329Z,384.82
2022-08-26T01:57:17.634Z,384.82
2022-08-26T01:58:02.852Z,384.82
2022-08-26T01:58:48.001Z,384.82
2022-08-26T01:59:33.077Z,384.82
2022-08-26T02:00:17.700Z,384.82
2022-08-26T02:01:02.938Z,384.82
2022-08-26T02:01:48.021Z,384.82
2022-08-26T02:02:33.151Z,384.82
2022-08-26T02:03:18.157Z,384.82
2022-08-26T02:04:03.333Z,384.82
2022-08-26T02:04:48.045Z,384.82
2022-08-26T02:05:33.203Z,384.82
2022-08-26T02:06:18.489Z,384.82
2022-08-26T02:07:03.773Z,384.82
2022-08-26T02:07:48.268Z,384.82
2022-08-26T02:08:33.526Z,384.82
2022-08-26T02:09:18.450Z,384.82
2022-08-26T02:10:03.543Z,384.82
2022-08-26T02:10:48.501Z,384.82
2022-08-26T02:11:33.754Z,384.82
2022-08-26T02:12:18.722Z,437.61
2022-08-26T02:13:03.380Z,425.67
2022-08-26T02:13:48.628Z,408.42
2022-08-26T02:14:33.113Z,415.68
2022-08-26T02:15:18.760Z,411.14
2022-08-26T02:16:03.497Z,423.85
2022-08-26T02:16:48.648Z,414.78
2022-08-26T02:17:33.688Z,415.68
2022-08-26T02:18:18.999Z,428.39
2022-08-26T02:19:03.689Z,427.48
2022-08-26T02:19:48.661Z,428.39
2022-08-26T02:20:33.768Z,432.02
2022-08-26T02:21:19.011Z,433.83
2022-08-26T02:22:03.832Z,466.51
2022-08-26T02:22:48.815Z,458.34
2022-08-26T02:23:34.041Z,458.34
2022-08-26T02:24:19.614Z,457.42
2022-08-26T02:25:04.164Z,452.01
2022-08-26T02:25:49.210Z,451.11
2022-08-26T02:26:34.372Z,448.41
2022-08-26T02:27:19.034Z,451.11
2022-08-26T02:28:03.969Z,456.52
2022-08-26T02:28:49.957Z,477.23
2022-08-26T02:29:34.291Z,459.22
2022-08-26T02:30:19.296Z,434.91
2022-08-26T02:31:04.264Z,435.81
2022-08-26T02:31:49.536Z,455.62
2022-08-26T02:32:34.312Z,472.86
2022-08-26T02:33:19.581Z,489.20
2022-08-26T02:34:04.636Z,448.36
2022-08-26T02:34:49.815Z,448.36
2022-08-26T02:35:34.745Z,459.25
2022-08-26T02:36:19.596Z,440.19
2022-08-26T02:37:04.651Z,448.36
2022-08-26T02:37:49.688Z,418.41
2022-08-26T02:38:34.674Z,446.61
2022-08-26T02:39:22.265Z,445.63
2022-08-26T02:40:04.914Z,450.17
2022-08-26T02:40:49.748Z,441.21
2022-08-26T02:41:35.096Z,437.61
2022-08-26T02:42:20.250Z,447.51
2022-08-26T02:43:05.098Z,458.32
2022-08-26T02:43:49.947Z,465.52
2022-08-26T02:44:35.115Z,461.02
2022-08-26T02:45:23.382Z,456.52
2022-08-26T02:46:05.042Z,461.06
2022-08-26T02:46:50.548Z,457.43
2022-08-26T02:47:35.291Z,455.62
2022-08-26T02:48:20.546Z,441.21
2022-08-26T02:49:05.551Z,450.01
2022-08-26T02:49:50.406Z,457.15
2022-08-26T02:50:35.766Z,448.41
2022-08-26T02:51:20.904Z,470.54
2022-08-26T02:52:05.683Z,441.08
2022-08-26T02:52:50.726Z,437.51
2022-08-26T02:53:36.094Z,449.31
2022-08-26T02:54:21.053Z,459.22
2022-08-26T02:55:06.032Z,488.93
2022-08-26T02:55:50.860Z,491.63
2022-08-26T02:56:36.388Z,445.71
2022-08-26T02:57:22.094Z,446.61
2022-08-26T02:58:06.127Z,479.93
2022-08-26T02:58:51.748Z,469.12
2022-08-26T02:59:36.353Z,468.76
2022-08-26T03:00:21.443Z,457.15
2022-08-26T03:01:06.391Z,450.21
2022-08-26T03:01:51.330Z,460.12
2022-08-26T03:02:36.305Z,461.02
2022-08-26T03:03:22.513Z,472.72
2022-08-26T03:04:06.588Z,477.23
2022-08-26T03:04:58.074Z,461.02
2022-08-26T03:05:36.696Z,470.92
2022-08-26T03:06:21.743Z,466.42
2022-08-26T03:07:06.811Z,447.51
2022-08-26T03:07:51.795Z,454.72
2022-08-26T03:08:36.816Z,453.81
2022-08-26T03:09:22.391Z,452.01
2022-08-26T03:10:08.780Z,443.01
2022-08-26T03:10:52.115Z,431.30
2022-08-26T03:11:37.149Z,421.40
2022-08-26T03:12:22.693Z,460.12
2022-08-26T03:13:07.606Z,453.81
2022-08-26T03:13:52.417Z,475.43
2022-08-26T03:14:37.125Z,467.32
2022-08-26T03:15:22.321Z,468.76
2022-08-26T03:16:07.728Z,461.61
2022-08-26T03:16:52.739Z,460.72
2022-08-26T03:17:37.797Z,464.29
2022-08-26T03:18:23.272Z,464.29
2022-08-26T03:19:08.233Z,460.72
2022-08-26T03:19:57.049Z,472.72
2022-08-26T03:20:38.022Z,466.97
2022-08-26T03:21:23.387Z,465.18
2022-08-26T03:22:08.139Z,463.40
2022-08-26T03:22:53.200Z,461.61
2022-08-26T03:23:38.248Z,458.04
2022-08-26T03:24:23.406Z,467.32
2022-08-26T03:25:08.364Z,466.08
2022-08-26T03:25:53.008Z,455.36
2022-08-26T03:26:38.063Z,441.97
2022-08-26T03:27:23.633Z,433.93
2022-08-26T03:28:09.559Z,443.76
2022-08-26T03:28:53.453Z,441.58
2022-08-26T03:29:39.338Z,433.96
2022-08-26T03:30:23.753Z,456.62
2022-08-26T03:31:08.941Z,462.81
2022-08-26T03:31:54.084Z,470.78
2022-08-26T03:32:38.768Z,448.22
2022-08-26T03:33:24.296Z,461.61
2022-08-26T03:34:09.267Z,441.97
2022-08-26T03:34:53.987Z,450.90
2022-08-26T03:35:39.054Z,442.86
2022-08-26T03:36:24.514Z,455.36
2022-08-26T03:37:09.607Z,469.12
2022-08-26T03:37:54.607Z,470.02
2022-08-26T03:38:39.379Z,468.76
2022-08-26T03:39:24.434Z,463.79
2022-08-26T03:40:09.627Z,467.42
2022-08-26T03:40:54.444Z,473.77
2022-08-26T03:41:39.510Z,465.60
2022-08-26T03:42:24.760Z,468.18
2022-08-26T03:43:10.188Z,470.01
2022-08-26T03:43:56.486Z,478.23
2022-08-26T03:44:40.236Z,485.70
2022-08-26T03:45:25.195Z,485.70
2022-08-26T03:46:09.894Z,483.85
2022-08-26T03:46:54.991Z,477.36
2022-08-26T03:47:39.438Z,482.92
2022-08-26T03:48:25.007Z,482.18
2022-08-26T03:49:10.079Z,486.84
2022-08-26T03:49:55.017Z,487.56
2022-08-26T03:50:39.923Z,483.85
2022-08-26T03:51:25.542Z,483.85
2022-08-26T03:52:10.095Z,491.50
2022-08-26T03:52:55.150Z,490.57
2022-08-26T03:53:39.893Z,497.15
2022-08-26T03:54:25.303Z,492.44
2022-08-26T03:55:10.532Z,493.37
2022-08-26T03:55:55.369Z,495.28
2022-08-26T03:56:40.536Z,493.40
2022-08-26T03:57:25.728Z,481.21
2022-08-26T03:58:10.440Z,492.46
2022-08-26T03:58:55.824Z,488.71
2022-08-26T03:59:41.279Z,491.53
2022-08-26T04:00:25.923Z,490.40
2022-08-26T04:01:10.774Z,493.23
2022-08-26T04:01:56.227Z,498.89
2022-08-26T04:02:40.849Z,504.55
2022-08-26T04:03:26.257Z,500.78
2022-08-26T04:04:15.426Z,480.03
2022-08-26T04:04:56.169Z,459.28
2022-08-26T04:05:41.741Z,484.96
2022-08-26T04:06:26.374Z,487.57
2022-08-26T04:07:11.229Z,494.17
2022-08-26T04:07:56.175Z,497.95
2022-08-26T04:08:41.361Z,496.66
2022-08-26T04:09:26.930Z,497.95
2022-08-26T04:10:11.363Z,490.40
2022-08-26T04:10:56.603Z,495.12
2022-08-26T04:11:41.654Z,499.83
2022-08-26T04:12:26.863Z,496.06
2022-08-26T04:13:11.683Z,501.40
2022-08-26T04:13:56.936Z,505.19
2022-08-26T04:14:41.993Z,506.13
2022-08-26T04:15:26.851Z,510.71
2022-08-26T04:16:12.361Z,510.71
2022-08-26T04:16:57.151Z,495.71
2022-08-26T04:17:42.163Z,504.24
2022-08-26T04:18:29.354Z,502.34
2022-08-26T04:19:12.219Z,526.23
2022-08-26T04:19:57.275Z,513.70
2022-08-26T04:20:42.436Z,506.94
2022-08-26T04:21:27.284Z,532.15
2022-08-26T04:22:12.103Z,517.75
2022-08-26T04:22:57.295Z,526.75
2022-08-26T04:23:46.934Z,528.23
2022-08-26T04:24:27.866Z,544.99
2022-08-26T04:25:12.573Z,536.69
2022-08-26T04:25:57.728Z,550.62
2022-08-26T04:26:43.873Z,554.53
2022-08-26T04:27:27.736Z,563.95
2022-08-26T04:28:12.594Z,555.42
2022-08-26T04:28:58.461Z,549.73
2022-08-26T04:29:43.082Z,543.10
2022-08-26T04:30:27.767Z,568.69
2022-08-26T04:31:13.670Z,569.64
2022-08-26T04:31:58.183Z,555.66
2022-08-26T04:32:43.131Z,549.73
2022-08-26T04:33:32.537Z,548.96
2022-08-26T04:34:14.216Z,558.53
2022-08-26T04:34:58.305Z,560.44
2022-08-26T04:35:43.669Z,550.87
2022-08-26T04:36:29.035Z,557.57
2022-08-26T04:37:13.401Z,567.13
2022-08-26T04:37:58.636Z,554.70
2022-08-26T04:38:43.682Z,561.39
2022-08-26T04:39:28.740Z,547.05
2022-08-26T04:40:13.643Z,561.39
2022-08-26T04:40:58.876Z,561.39
2022-08-26T04:41:43.657Z,563.31
2022-08-26T04:42:28.868Z,567.13
2022-08-26T04:43:14.023Z,557.57
2022-08-26T04:43:58.873Z,553.74
2022-08-26T04:44:43.928Z,556.93
2022-08-26T04:45:28.992Z,557.89
2022-08-26T04:46:14.307Z,550.34
2022-08-26T04:46:59.215Z,554.19
2022-08-26T04:47:44.158Z,561.90
2022-08-26T04:48:29.250Z,557.08
2022-08-26T04:49:14.084Z,550.34
2022-08-26T04:49:59.432Z,559.01
2022-08-26T04:50:44.484Z,553.23
2022-08-26T04:51:29.345Z,545.52
2022-08-26T04:52:14.499Z,561.90
2022-08-26T04:52:59.344Z,545.52
2022-08-26T04:53:44.562Z,555.15
2022-08-26T04:54:29.666Z,558.05
2022-08-26T04:55:14.762Z,552.23
2022-08-26T04:55:59.895Z,548.41
2022-08-26T04:56:44.939Z,550.30
2022-08-26T04:57:29.895Z,545.46
2022-08-26T04:58:15.363Z,555.13
2022-08-26T04:59:00.210Z,545.46
2022-08-26T04:59:44.873Z,538.69
2022-08-26T05:00:30.116Z,536.76
2022-08-26T05:01:15.210Z,536.76
2022-08-26T05:02:00.261Z,530.96
2022-08-26T05:02:45.098Z,533.86
2022-08-26T05:03:30.486Z,532.89
2022-08-26T05:04:16.251Z,529.02
2022-08-26T05:05:00.666Z,529.99
2022-08-26T05:05:45.614Z,531.92
2022-08-26T05:06:30.578Z,529.99
2022-08-26T05:07:15.558Z,512.62
2022-08-26T05:08:01.460Z,563.84
2022-08-26T05:08:45.356Z,565.77
2022-08-26T05:09:30.767Z,573.51
2022-08-26T05:10:15.649Z,580.28
2022-08-26T05:11:00.929Z,569.64
2022-08-26T05:11:45.765Z,564.81
2022-08-26T05:12:30.835Z,573.51
2022-08-26T05:13:16.017Z,574.48
2022-08-26T05:14:02.276Z,561.90
2022-08-26T05:14:46.101Z,560.94
2022-08-26T05:15:31.142Z,565.77
2022-08-26T05:16:16.190Z,559.00
2022-08-26T05:17:00.853Z,565.77
2022-08-26T05:17:46.313Z,564.81
2022-08-26T05:18:31.160Z,570.61
2022-08-26T05:19:17.212Z,567.71
2022-08-26T05:20:02.001Z,566.74
2022-08-26T05:20:46.131Z,557.07
2022-08-26T05:21:31.416Z,565.77
2022-08-26T05:22:16.448Z,561.90
2022-08-26T05:23:01.611Z,557.07
2022-08-26T05:23:46.377Z,544.50
2022-08-26T05:24:31.593Z,539.66
2022-08-26T05:25:16.587Z,545.46
2022-08-26T05:26:01.836Z,550.30
2022-08-26T05:26:46.586Z,522.39
2022-08-26T05:27:32.261Z,521.42
2022-08-26T05:28:17.311Z,523.35
2022-08-26T05:29:02.294Z,531.06
2022-08-26T05:29:47.071Z,537.81
2022-08-26T05:30:32.281Z,538.77
2022-08-26T05:31:17.296Z,553.23
2022-08-26T05:32:02.110Z,539.65
2022-08-26T05:32:47.239Z,537.73
2022-08-26T05:33:32.612Z,538.69
2022-08-26T05:34:17.689Z,536.77
2022-08-26T05:35:03.357Z,547.33
2022-08-26T05:35:47.562Z,531.90
2022-08-26T05:36:32.627Z,540.61
2022-08-26T05:37:18.432Z,544.45
2022-08-26T05:38:02.738Z,555.97
2022-08-26T05:38:47.937Z,568.46
2022-08-26T05:39:33.064Z,560.44
2022-08-26T05:40:18.087Z,540.35
2022-08-26T05:41:02.898Z,537.49
2022-08-26T05:41:48.248Z,539.40
2022-08-26T05:42:33.127Z,542.27
2022-08-26T05:43:18.128Z,544.18
2022-08-26T05:44:03.082Z,537.49
2022-08-26T05:44:55.854Z,546.09
2022-08-26T05:45:33.222Z,540.35
2022-08-26T05:46:18.720Z,544.16
2022-08-26T05:47:03.198Z,542.27
2022-08-26T05:47:48.573Z,559.21
2022-08-26T05:48:33.520Z,536.53
2022-08-26T05:49:18.987Z,536.53
2022-08-26T05:50:04.267Z,536.53
2022-08-26T05:50:49.228Z,536.53
2022-08-26T05:51:34.516Z,536.53
2022-08-26T05:52:19.648Z,536.53
2022-08-26T05:53:04.491Z,536.53
2022-08-26T05:53:54.528Z,536.53
2022-08-26T05:54:34.598Z,536.53
2022-08-26T05:55:19.897Z,536.53
2022-08-26T05:56:04.288Z,536.53
2022-08-26T05:56:49.554Z,536.53
2022-08-26T05:57:37.464Z,536.53
2022-08-26T05:58:19.677Z,536.53
2022-08-26T05:59:04.558Z,536.53
2022-08-26T05:59:49.470Z,536.53
2022-08-26T06:00:34.575Z,536.53
2022-08-26T06:01:19.656Z,536.53
2022-08-26T06:02:04.911Z,536.53
2022-08-26T06:02:49.661Z,536.53
2022-08-26T06:03:34.800Z,536.53
2022-08-26T06:04:20.143Z,536.53
2022-08-26T06:05:04.872Z,536.53
2022-08-26T06:05:50.136Z,536.53
2022-08-26T06:06:34.675Z,476.27
2022-08-26T06:07:19.942Z,476.27
2022-08-26T06:08:04.895Z,471.49
2022-08-26T06:08:49.735Z,463.48
2022-08-26T06:09:34.791Z,486.23
2022-08-26T06:10:32.070Z,482.44
2022-08-26T06:11:05.349Z,482.44
2022-08-26T06:11:49.974Z,484.33
2022-08-26T06:12:34.920Z,479.09
2022-08-26T06:13:20.178Z,442.31
2022-08-26T06:14:05.346Z,442.31
2022-08-26T06:14:50.606Z,442.31
2022-08-26T06:15:35.780Z,442.31
2022-08-26T06:16:20.336Z,442.80
2022-08-26T06:17:05.178Z,431.14
2022-08-26T06:17:50.475Z,431.14
2022-08-26T06:18:36.156Z,431.14
2022-08-26T06:19:21.179Z,412.20
2022-08-26T06:20:05.886Z,412.20
2022-08-26T06:20:57.817Z,412.20
2022-08-26T06:21:35.815Z,412.20
2022-08-26T06:22:22.437Z,412.20
2022-08-26T06:23:06.218Z,412.20
2022-08-26T06:23:51.299Z,412.20
2022-08-26T06:24:36.130Z,412.20
2022-08-26T06:25:21.140Z,412.20
2022-08-26T06:26:06.354Z,412.20
2022-08-26T06:26:51.192Z,412.20
2022-08-26T06:27:36.571Z,412.20
2022-08-26T06:28:21.406Z,412.20
2022-08-26T06:29:06.675Z,412.20
2022-08-26T06:29:51.766Z,412.20
2022-08-26T06:30:36.785Z,412.20
2022-08-26T06:31:22.068Z,412.20
2022-08-26T06:32:06.943Z,412.20
2022-08-26T06:32:51.549Z,412.20
2022-08-26T06:33:36.612Z,412.20
2022-08-26T06:34:22.072Z,412.20
2022-08-26T06:35:06.823Z,412.20
2022-08-26T06:35:52.076Z,412.20
2022-08-26T06:36:37.029Z,412.20
2022-08-26T06:37:22.298Z,412.20
2022-08-26T06:38:07.356Z,412.20
2022-08-26T06:38:52.098Z,412.20
2022-08-26T06:39:41.054Z,412.20
2022-08-26T06:40:22.477Z,412.20
2022-08-26T06:41:07.272Z,412.20
2022-08-26T06:41:52.430Z,412.20
2022-08-26T06:42:37.278Z,412.20
2022-08-26T06:43:22.649Z,412.20
2022-08-26T06:44:06.786Z,487.18
2022-08-26T06:44:52.244Z,501.40
2022-08-26T06:45:37.421Z,521.30
2022-08-26T06:46:22.143Z,524.36
2022-08-26T06:47:07.000Z,523.20
2022-08-26T06:47:52.495Z,517.51
2022-08-26T06:48:37.319Z,528.88
2022-08-26T06:49:26.633Z,527.92
2022-08-26T06:50:07.330Z,524.10
2022-08-26T06:50:52.598Z,524.10
2022-08-26T06:51:37.543Z,539.40
2022-08-26T06:52:24.612Z,526.04
2022-08-26T06:53:07.946Z,524.14
2022-08-26T06:53:53.167Z,527.18
2022-08-26T06:54:38.784Z,522.47
2022-08-26T06:55:22.928Z,527.93
2022-08-26T06:56:07.883Z,527.93
2022-08-26T06:56:53.046Z,519.40
2022-08-26T06:57:39.717Z,523.20
2022-08-26T06:58:23.466Z,530.79
2022-08-26T06:59:08.244Z,528.88
2022-08-26T06:59:53.173Z,528.88
2022-08-26T07:00:38.584Z,532.70
2022-08-26T07:01:23.495Z,529.83
2022-08-26T07:02:08.635Z,528.88
2022-08-26T07:02:53.577Z,528.88
2022-08-26T07:03:39.565Z,527.92
2022-08-26T07:04:23.815Z,527.92
2022-08-26T07:05:08.333Z,529.83
2022-08-26T07:05:53.590Z,533.66
2022-08-26T07:06:39.049Z,517.40
2022-08-26T07:07:24.458Z,517.40
2022-08-26T07:08:08.709Z,531.97
2022-08-26T07:08:53.846Z,526.24
2022-08-26T07:09:38.853Z,538.44
2022-08-26T07:10:24.060Z,526.96
2022-08-26T07:11:08.908Z,532.70
2022-08-26T07:11:54.171Z,526.96
2022-08-26T07:12:39.348Z,535.57
2022-08-26T07:13:30.718Z,527.92
2022-08-26T07:14:09.239Z,531.97
2022-08-26T07:14:54.398Z,530.05
2022-08-26T07:15:39.316Z,535.81
2022-08-26T07:16:24.537Z,532.93
2022-08-26T07:17:11.131Z,533.89
2022-08-26T07:17:54.643Z,521.40
2022-08-26T07:18:39.999Z,521.40
2022-08-26T07:19:30.737Z,531.97
2022-08-26T07:20:09.583Z,538.69
2022-08-26T07:20:54.749Z,528.13
2022-08-26T07:21:39.804Z,530.78
2022-08-26T07:22:25.269Z,523.41
2022-08-26T07:23:09.839Z,521.52
2022-08-26T07:23:58.727Z,525.30
2022-08-26T07:24:40.037Z,520.35
2022-08-26T07:25:24.976Z,533.66
2022-08-26T07:26:10.139Z,524.10
2022-08-26T07:26:55.098Z,527.92
2022-08-26T07:27:40.256Z,525.05
2022-08-26T07:28:25.433Z,528.88
2022-08-26T07:29:10.369Z,526.21
2022-08-26T07:29:55.223Z,526.21
2022-08-26T07:30:40.419Z,531.01
2022-08-26T07:31:25.659Z,522.25
2022-08-26T07:32:10.280Z,531.01
2022-08-26T07:32:55.645Z,530.10
2022-08-26T07:33:40.707Z,528.13
2022-08-26T07:34:26.227Z,523.20
2022-08-26T07:35:10.628Z,535.81
2022-08-26T07:35:55.604Z,524.14
2022-08-26T07:36:40.933Z,531.97
2022-08-26T07:37:25.843Z,528.13
2022-08-26T07:38:10.946Z,529.09
2022-08-26T07:38:55.997Z,539.65
2022-08-26T07:39:41.055Z,533.89
2022-08-26T07:40:26.185Z,545.41
2022-08-26T07:41:10.962Z,535.57
2022-08-26T07:41:56.319Z,547.05
2022-08-26T07:42:41.253Z,539.40
2022-08-26T07:43:26.298Z,542.27
2022-08-26T07:44:11.508Z,530.79
2022-08-26T07:44:57.161Z,533.66
2022-08-26T07:45:41.813Z,539.40
2022-08-26T07:46:27.483Z,537.49
2022-08-26T07:47:25.195Z,541.31
2022-08-26T07:47:56.368Z,534.62
2022-08-26T07:48:41.732Z,545.14
2022-08-26T07:49:26.970Z,538.44
2022-08-26T07:50:11.964Z,541.20
2022-08-26T07:50:56.907Z,546.89
2022-08-26T07:51:42.069Z,545.94
2022-08-26T07:52:27.487Z,538.36
2022-08-26T07:53:12.190Z,521.30
2022-08-26T07:53:57.124Z,525.09
2022-08-26T07:54:42.081Z,529.83
2022-08-26T07:55:27.572Z,531.73
2022-08-26T07:56:12.549Z,532.67
2022-08-26T07:56:57.263Z,514.66
2022-08-26T07:57:42.528Z,503.29
2022-08-26T07:58:27.358Z,505.19
2022-08-26T07:59:13.680Z,511.15
2022-08-26T07:59:57.681Z,513.98
2022-08-26T08:00:42.735Z,493.23
2022-08-26T08:01:27.799Z,482.86
2022-08-26T08:02:12.857Z,483.80
2022-08-26T08:02:57.800Z,487.57
2022-08-26T08:03:42.870Z,481.91
2022-08-26T08:04:27.812Z,468.71
2022-08-26T08:05:13.148Z,479.09
2022-08-26T08:05:58.023Z,482.86
2022-08-26T08:06:43.872Z,485.69
2022-08-26T08:07:44.444Z,476.26
2022-08-26T08:08:27.292Z,476.26
2022-08-26T08:08:58.071Z,488.52
2022-08-26T08:09:43.000Z,484.74
2022-08-26T08:10:28.060Z,488.52
2022-08-26T08:11:13.372Z,466.83
2022-08-26T08:11:58.688Z,466.83
2022-08-26T08:12:43.332Z,466.83
2022-08-26T08:13:28.395Z,466.83
2022-08-26T08:14:13.853Z,466.83
2022-08-26T08:14:58.701Z,466.83
2022-08-26T08:15:43.450Z,466.83
2022-08-26T08:16:28.678Z,466.83
2022-08-26T08:17:13.798Z,466.83
2022-08-26T08:18:00.652Z,466.83
2022-08-26T08:18:43.674Z,466.83
2022-08-26T08:19:38.979Z,466.83
2022-08-26T08:20:13.995Z,466.83
2022-08-26T08:21:10.902Z,466.83
2022-08-26T08:21:44.122Z,466.83
2022-08-26T08:22:29.166Z,466.83
2022-08-26T08:23:14.327Z,466.83
2022-08-26T08:23:59.280Z,466.83
2022-08-26T08:24:44.142Z,466.83
2022-08-26T08:25:29.290Z,466.83
2022-08-26T08:26:14.457Z,466.83
2022-08-26T08:26:59.507Z,466.83
2022-08-26T08:27:44.565Z,466.83
2022-08-26T08:28:29.413Z,466.83
2022-08-26T08:29:14.475Z,466.83
2022-08-26T08:29:59.529Z,466.83
2022-08-26T08:30:44.839Z,466.83
2022-08-26T08:31:56.029Z,466.83
2022-08-26T08:32:15.567Z,466.83
2022-08-26T08:32:59.851Z,466.83
2022-08-26T08:33:44.845Z,466.83
2022-08-26T08:34:29.921Z,466.83
2022-08-26T08:35:14.928Z,466.83
2022-08-26T08:36:00.184Z,466.83
2022-08-26T08:36:45.035Z,466.83
2022-08-26T08:37:30.200Z,466.83
2022-08-26T08:38:15.250Z,466.83
2022-08-26T08:39:00.410Z,466.83
2022-08-26T08:39:45.260Z,466.83
2022-08-26T08:40:30.085Z,466.83
2022-08-26T08:41:15.067Z,466.83
2022-08-26T08:42:00.428Z,466.83
2022-08-26T08:42:45.424Z,466.83
2022-08-26T08:43:30.548Z,466.83
2022-08-26T08:44:15.641Z,466.83
2022-08-26T08:45:00.353Z,466.83
2022-08-26T08:45:47.260Z,466.83
2022-08-26T08:46:30.489Z,466.83
2022-08-26T08:47:15.411Z,466.83
2022-08-26T08:48:00.579Z,466.83
2022-08-26T08:48:45.836Z,466.83
2022-08-26T08:49:30.652Z,466.83
2022-08-26T08:50:15.556Z,466.83
2022-08-26T08:51:00.627Z,466.83
2022-08-26T08:51:45.559Z,466.83
2022-08-26T08:52:30.706Z,466.83
2022-08-26T08:53:15.967Z,466.83
2022-08-26T08:54:00.918Z,466.83
2022-08-26T08:54:46.233Z,466.83
2022-08-26T08:55:30.931Z,466.83
2022-08-26T08:56:16.088Z,466.83
2022-08-26T08:57:01.047Z,466.83
2022-08-26T08:57:46.262Z,466.83
2022-08-26T08:58:31.261Z,466.83
2022-08-26T08:59:16.114Z,466.83
2022-08-26T09:00:01.291Z,466.83
2022-08-26T09:00:46.328Z,466.83
2022-08-26T09:01:31.931Z,466.83
2022-08-26T09:02:16.614Z,466.83
2022-08-26T09:03:01.601Z,466.83
2022-08-26T09:03:46.567Z,466.83
2022-08-26T09:04:31.298Z,209.84
2022-08-26T09:05:16.569Z,209.84
2022-08-26T09:06:01.794Z,209.84
2022-08-26T09:06:46.851Z,209.84
2022-08-26T09:07:33.238Z,209.84
2022-08-26T09:08:16.888Z,209.84
2022-08-26T09:09:02.461Z,209.84
2022-08-26T09:09:46.930Z,209.84
2022-08-26T09:10:31.955Z,209.84
2022-08-26T09:11:17.221Z,209.84
2022-08-26T09:12:02.174Z,209.84
2022-08-26T09:12:47.234Z,209.84
2022-08-26T09:13:32.387Z,209.84
2022-08-26T09:14:17.545Z,209.84
2022-08-26T09:15:02.607Z,209.84
2022-08-26T09:15:47.559Z,209.84
2022-08-26T09:16:32.473Z,209.84
2022-08-26T09:17:17.472Z,209.84
2022-08-26T09:18:04.494Z,209.84
2022-08-26T09:18:47.692Z,209.84
2022-08-26T09:19:32.940Z,209.84
2022-08-26T09:20:18.036Z,209.84
2022-08-26T09:21:02.866Z,209.84
2022-08-26T09:21:53.295Z,209.84